createdAt,value
2022-10-29T00:02:39.909Z,91.54
2022-10-29T00:07:42.256Z,91.90
2022-10-29T00:12:44.419Z,92.06
2022-10-29T00:17:46.631Z,92.06
2022-10-29T00:22:48.986Z,92.11
2022-10-29T00:27:51.110Z,92.03
2022-10-29T00:32:53.377Z,91.82
2022-10-29T00:37:55.967Z,91.36
2022-10-29T00:43:19.849Z,91.41
2022-10-29T00:48:25.076Z,91.61
2022-10-29T00:53:30.582Z,91.82
2022-10-29T00:58:32.976Z,91.66
2022-10-29T01:03:35.169Z,91.47
2022-10-29T01:08:37.369Z,91.24
2022-10-29T01:13:48.393Z,91.10
2022-10-29T01:19:15.722Z,91.07
2022-10-29T01:25:08.598Z,91.16
2022-10-29T01:30:15.946Z,91.14
2022-10-29T01:35:23.949Z,90.97
2022-10-29T01:40:35.245Z,90.84
2022-10-29T01:45:44.168Z,90.51
2022-10-29T01:50:51.105Z,89.95
2022-10-29T01:55:53.214Z,90.09
2022-10-29T02:01:10.501Z,90.14
2022-10-29T02:06:20.255Z,90.17
2022-10-29T02:11:27.481Z,90.11
2022-10-29T02:16:30.917Z,90.16
2022-10-29T02:21:33.036Z,90.10
2022-10-29T02:26:35.159Z,91.09
2022-10-29T02:31:37.265Z,91.69
2022-10-29T02:36:39.440Z,92.46
2022-10-29T02:41:41.520Z,92.97
2022-10-29T02:46:43.603Z,93.41
2022-10-29T02:51:45.735Z,93.36
2022-10-29T02:56:47.933Z,93.36
2022-10-29T03:01:50.196Z,93.25
2022-10-29T03:06:52.765Z,93.03
2022-10-29T03:11:54.852Z,92.77
2022-10-29T03:16:56.938Z,92.64
2022-10-29T03:21:59.021Z,92.54
2022-10-29T03:27:01.209Z,92.27
2022-10-29T03:32:03.291Z,92.04
2022-10-29T03:37:05.391Z,92.03
2022-10-29T03:42:07.466Z,92.73
2022-10-29T03:47:09.567Z,92.77
2022-10-29T03:52:11.800Z,92.93
2022-10-29T03:57:14.104Z,92.90
2022-10-29T04:02:16.371Z,92.80
2022-10-29T04:07:19.372Z,92.95
2022-10-29T04:12:21.457Z,93.08
2022-10-29T04:17:23.535Z,92.63
2022-10-29T04:33:09.811Z,91.75
2022-10-29T04:38:12.921Z,91.64
2022-10-29T04:43:15.414Z,91.36
2022-10-29T04:48:17.491Z,91.31
2022-10-29T04:53:20.503Z,91.25
2022-10-29T04:58:22.573Z,91.39
2022-10-29T05:03:24.610Z,91.46
2022-10-29T05:08:26.691Z,91.40
2022-10-29T05:13:28.816Z,91.27
2022-10-29T05:18:30.899Z,91.07
2022-10-29T05:23:33.300Z,91.00
2022-10-29T05:28:35.614Z,90.91
2022-10-29T05:33:37.790Z,90.52
2022-10-29T05:38:39.987Z,90.32
2022-10-29T05:43:42.078Z,90.50
2022-10-29T05:48:44.140Z,90.66
2022-10-29T05:53:47.495Z,90.90
2022-10-29T05:58:50.610Z,90.87
2022-10-29T06:08:59.975Z,91.61
2022-10-29T06:14:02.617Z,91.36
2022-10-29T06:19:05.384Z,90.67
2022-10-29T06:24:08.099Z,90.28
2022-10-29T06:29:10.316Z,89.87
2022-10-29T06:34:13.586Z,89.82
2022-10-29T06:39:15.926Z,89.66
2022-10-29T06:44:18.044Z,90.22
2022-10-29T06:49:21.057Z,90.48
2022-10-29T06:54:23.148Z,91.42
2022-10-29T06:59:25.241Z,91.43
2022-10-29T07:04:27.367Z,90.26
2022-10-29T07:09:29.501Z,89.70
2022-10-29T07:14:31.635Z,88.14
2022-10-29T07:19:33.726Z,88.82
2022-10-29T07:24:35.899Z,89.04
2022-10-29T07:29:38.193Z,88.31
2022-10-29T07:34:40.317Z,88.37
2022-10-29T07:39:42.404Z,87.99
2022-10-29T07:44:44.601Z,87.32
2022-10-29T07:49:46.672Z,86.54
2022-10-29T07:54:48.765Z,86.53
2022-10-29T07:59:52.043Z,87.37
2022-10-29T08:04:54.930Z,87.17
2022-10-29T08:09:57.036Z,87.33
2022-10-29T08:14:59.197Z,87.81
2022-10-29T08:20:01.268Z,88.37
2022-10-29T08:25:03.848Z,88.22
2022-10-29T08:30:07.712Z,88.17
2022-10-29T08:35:09.910Z,87.43
2022-10-29T08:40:25.176Z,87.81
2022-10-29T08:45:34.133Z,87.89
2022-10-29T08:50:41.401Z,87.78
2022-10-29T08:55:45.195Z,87.91
